createdAt,value
2019-01-04T00:00:36.877Z,0.70
2019-01-04T00:03:05.324Z,0.80
2019-01-04T00:05:33.880Z,0.80
2019-01-04T00:08:02.322Z,0.50
2019-01-04T00:10:30.682Z,0.40
2019-01-04T00:12:59.027Z,0.50
2019-01-04T00:15:27.398Z,0.30
2019-01-04T00:17:55.744Z,0.30
2019-01-04T00:20:24.195Z,0.40
2019-01-04T00:22:53.055Z,0.30
2019-01-04T00:25:23.201Z,0.20
2019-01-04T00:27:51.780Z,0.10
2019-01-04T00:30:20.219Z,-0.10
2019-01-04T00:32:48.692Z,-0.20
2019-01-04T00:35:17.035Z,-0.10
2019-01-04T00:37:45.992Z,0.00
2019-01-04T00:40:16.144Z,0.20
2019-01-04T00:42:46.300Z,0.20
2019-01-04T00:45:14.675Z,-0.10
2019-01-04T00:47:43.138Z,-0.10
2019-01-04T00:50:11.599Z,0.00
2019-01-04T00:52:39.943Z,-0.10
2019-01-04T00:55:55.673Z,-0.30
2019-01-04T00:59:25.718Z,-0.20
2019-01-04T01:03:12.808Z,-0.20
2019-01-04T01:06:41.055Z,-0.40
2019-01-04T01:10:00.404Z,-0.60
2019-01-04T01:13:52.616Z,-0.30
2019-01-04T01:17:04.620Z,-0.40
2019-01-04T01:20:24.675Z,-0.40
2019-01-04T01:23:55.932Z,-0.40
2019-01-04T01:27:18.539Z,-0.40
2019-01-04T01:30:52.601Z,-0.40
2019-01-04T01:34:02.840Z,-0.50
2019-01-04T01:37:31.577Z,-0.50
2019-01-04T01:40:50.216Z,-0.50
2019-01-04T01:44:43.261Z,-0.30
2019-01-04T01:47:55.271Z,-0.60
2019-01-04T01:50:59.473Z,-0.60
2019-01-04T01:53:44.074Z,-0.50
2019-01-04T01:56:12.453Z,-0.50
2019-01-04T01:58:40.916Z,-0.70
2019-01-04T02:01:09.368Z,-0.80
2019-01-04T02:03:37.898Z,-0.60
2019-01-04T02:06:06.256Z,-0.80
2019-01-04T02:08:34.603Z,-0.80
2019-01-04T02:11:03.173Z,-0.70
2019-01-04T02:13:31.648Z,-0.60
2019-01-04T02:16:00.109Z,-0.60
2019-01-04T02:18:28.469Z,-0.60
2019-01-04T02:20:56.932Z,-0.80
2019-01-04T02:23:25.483Z,-0.80
2019-01-04T02:25:53.937Z,-0.90
2019-01-04T02:28:22.305Z,-0.90
2019-01-04T02:30:50.657Z,-0.90
2019-01-04T02:33:19.893Z,-0.90
2019-01-04T02:35:48.905Z,-1.10
2019-01-04T02:38:17.360Z,-1.10
2019-01-04T02:40:45.700Z,-1.00
2019-01-04T02:43:14.097Z,-0.90
2019-01-04T02:45:42.457Z,-0.90
2019-01-04T02:48:11.905Z,-0.70
2019-01-04T02:50:40.461Z,-0.80
2019-01-04T02:53:08.880Z,-1.00
2019-01-04T02:55:37.337Z,-0.90
2019-01-04T02:58:05.786Z,-0.70
2019-01-04T03:00:35.933Z,-0.80
2019-01-04T03:03:04.367Z,-0.90
2019-01-04T03:05:33.221Z,-1.00
2019-01-04T03:08:01.587Z,-1.10
2019-01-04T03:10:29.939Z,-1.00
2019-01-04T03:12:58.306Z,-1.10
2019-01-04T03:15:26.649Z,-0.90
2019-01-04T03:17:55.102Z,-1.00
2019-01-04T03:20:23.544Z,-1.10
2019-01-04T03:22:53.698Z,-1.00
2019-01-04T03:25:22.255Z,-0.90
2019-01-04T03:27:50.765Z,-0.90
2019-01-04T03:30:19.365Z,-0.90
2019-01-04T03:32:48.604Z,-0.70
2019-01-04T03:35:17.203Z,-0.60
2019-01-04T03:37:46.474Z,-0.60
2019-01-04T03:40:14.918Z,-0.70
2019-01-04T03:42:43.385Z,-0.70
2019-01-04T03:45:11.804Z,-0.80
2019-01-04T03:47:40.377Z,-0.70
2019-01-04T03:50:08.822Z,-0.60
2019-01-04T03:52:38.472Z,-0.60
2019-01-04T03:55:06.835Z,-0.70
2019-01-04T03:57:35.301Z,-0.70
2019-01-04T04:00:04.914Z,-0.80
2019-01-04T04:02:34.961Z,-0.60
2019-01-04T04:05:03.753Z,-0.80
2019-01-04T04:07:32.212Z,-0.50
2019-01-04T04:10:00.574Z,-0.70
2019-01-04T04:12:29.033Z,-0.70
2019-01-04T04:14:57.406Z,-0.70
2019-01-04T04:17:25.743Z,-0.80
2019-01-04T04:19:54.295Z,-0.90
2019-01-04T04:22:22.845Z,-0.80
2019-01-04T04:24:52.876Z,-0.80
2019-01-04T04:27:21.240Z,-0.70
2019-01-04T04:29:49.783Z,-0.80
2019-01-04T04:32:19.145Z,-1.00
2019-01-04T04:34:47.686Z,-0.90
2019-01-04T04:37:16.153Z,-0.80
2019-01-04T04:39:46.318Z,-1.00
2019-01-04T04:42:15.673Z,-1.10
2019-01-04T04:44:44.172Z,-1.30
2019-01-04T04:47:12.633Z,-1.30
2019-01-04T04:49:42.887Z,-1.30
2019-01-04T04:52:11.336Z,-1.30
2019-01-04T04:54:39.784Z,-1.10
2019-01-04T04:57:08.142Z,-1.30
2019-01-04T04:59:36.597Z,-1.40
2019-01-04T05:02:04.947Z,-1.20
2019-01-04T05:04:33.409Z,-1.30
2019-01-04T05:07:01.860Z,-1.20
2019-01-04T05:09:30.339Z,-1.20
2019-01-04T05:11:58.779Z,-1.20
2019-01-04T05:14:27.269Z,-1.40
2019-01-04T05:16:55.604Z,-1.60
2019-01-04T05:19:24.243Z,-1.50
2019-01-04T05:21:54.390Z,-1.40
2019-01-04T05:24:22.756Z,-1.20
2019-01-04T05:26:51.103Z,-1.20
2019-01-04T05:29:19.854Z,-1.10
2019-01-04T05:31:48.415Z,-1.30
2019-01-04T05:34:17.063Z,-1.50
2019-01-04T05:36:45.511Z,-1.60
2019-01-04T05:39:14.077Z,-1.60
2019-01-04T05:41:42.546Z,-1.40
2019-01-04T05:44:10.920Z,-1.50
2019-01-04T05:46:39.466Z,-1.50
2019-01-04T05:49:07.908Z,-1.30
2019-01-04T05:51:36.372Z,-1.20
2019-01-04T05:54:04.742Z,-1.20
2019-01-04T05:56:33.095Z,-1.30
2019-01-04T05:59:01.569Z,-1.10
2019-01-04T06:01:30.111Z,-1.00
2019-01-04T06:03:58.535Z,-0.80
2019-01-04T06:06:26.878Z,-0.70
2019-01-04T06:08:55.352Z,-0.60
2019-01-04T06:11:23.904Z,-0.70
2019-01-04T06:13:52.283Z,-0.70
2019-01-04T06:16:20.628Z,-0.60
2019-01-04T06:18:49.792Z,-0.40
2019-01-04T06:21:18.139Z,-0.40
2019-01-04T06:23:48.344Z,-0.50
2019-01-04T06:26:16.704Z,-0.30
2019-01-04T06:28:45.653Z,-0.10
2019-01-04T06:31:14.113Z,-0.10
2019-01-04T06:33:43.673Z,-0.10
2019-01-04T06:36:12.037Z,-0.10
2019-01-04T06:38:40.475Z,0.00
2019-01-04T06:41:08.826Z,0.00
2019-01-04T06:43:38.018Z,0.00
2019-01-04T06:46:06.473Z,0.10
2019-01-04T06:48:36.130Z,0.10
2019-01-04T06:51:04.678Z,0.10
2019-01-04T06:53:33.227Z,0.00
2019-01-04T06:56:02.929Z,-0.10
2019-01-04T06:58:33.088Z,-0.10
2019-01-04T07:01:01.548Z,0.10
2019-01-04T07:03:30.094Z,0.00
2019-01-04T07:05:58.558Z,0.00
2019-01-04T07:08:27.007Z,-0.20
2019-01-04T07:10:55.491Z,-0.20
2019-01-04T07:13:24.227Z,-0.20
2019-01-04T07:15:54.381Z,-0.20
2019-01-04T07:18:23.145Z,-0.30
2019-01-04T07:20:51.508Z,-0.20
2019-01-04T07:23:20.207Z,-0.30
2019-01-04T07:25:48.652Z,-0.10
2019-01-04T07:28:17.125Z,0.00
2019-01-04T07:30:45.582Z,-0.10
2019-01-04T07:33:14.133Z,-0.10
2019-01-04T07:35:42.594Z,-0.20
2019-01-04T07:38:11.273Z,0.00
2019-01-04T07:40:39.747Z,0.20
2019-01-04T07:43:08.547Z,0.10
2019-01-04T07:45:37.935Z,0.20
2019-01-04T07:48:06.580Z,0.30
2019-01-04T07:50:35.339Z,0.40
2019-01-04T07:53:03.848Z,0.50
2019-01-04T07:55:34.001Z,0.50
2019-01-04T07:58:02.378Z,0.60
2019-01-04T08:00:30.824Z,0.50
2019-01-04T08:03:12.867Z,0.50
2019-01-04T08:05:42.014Z,0.30
2019-01-04T08:08:10.479Z,0.40
2019-01-04T08:10:38.846Z,0.30
2019-01-04T08:13:07.440Z,0.40
2019-01-04T08:15:35.804Z,0.60
2019-01-04T08:18:04.259Z,0.80
2019-01-04T08:20:32.721Z,0.70
2019-01-04T08:23:01.155Z,0.60
2019-01-04T08:25:29.812Z,0.80
2019-01-04T08:27:58.457Z,0.80
2019-01-04T08:30:26.815Z,0.80
2019-01-04T08:32:55.157Z,0.90
2019-01-04T08:35:23.615Z,1.00
2019-01-04T08:37:52.055Z,1.00
2019-01-04T08:40:20.404Z,0.90
2019-01-04T08:42:48.878Z,0.80
2019-01-04T08:45:19.114Z,0.80
2019-01-04T08:47:47.576Z,0.80
2019-01-04T08:50:16.022Z,0.90
2019-01-04T08:52:44.574Z,1.00
2019-01-04T08:55:27.706Z,1.00
2019-01-04T08:57:56.264Z,1.00
2019-01-04T09:00:29.093Z,1.00
2019-01-04T09:02:58.551Z,1.10
2019-01-04T09:05:27.105Z,1.00
2019-01-04T09:07:55.580Z,0.90
2019-01-04T09:10:23.990Z,0.90
2019-01-04T09:12:52.476Z,1.00
2019-01-04T09:15:20.839Z,1.00
2019-01-04T09:17:49.181Z,1.10
2019-01-04T09:20:17.653Z,1.00
2019-01-04T09:22:47.194Z,1.10
2019-01-04T09:25:17.120Z,1.10
2019-01-04T09:27:45.469Z,1.30
2019-01-04T09:30:14.869Z,1.20
2019-01-04T09:32:43.318Z,1.10
2019-01-04T09:35:11.777Z,1.10
2019-01-04T09:37:40.136Z,1.10
2019-01-04T09:40:10.734Z,1.00
2019-01-04T09:42:45.080Z,1.00
2019-01-04T09:45:13.797Z,1.10
2019-01-04T09:47:42.252Z,1.20
2019-01-04T09:50:10.803Z,1.30
2019-01-04T09:52:39.375Z,1.40
2019-01-04T09:55:08.118Z,1.40
2019-01-04T09:57:36.576Z,1.50
2019-01-04T10:00:15.190Z,1.40
2019-01-04T10:02:43.659Z,1.50
2019-01-04T10:05:12.407Z,1.60
2019-01-04T10:07:40.853Z,1.70
2019-01-04T10:10:12.360Z,1.80
2019-01-04T10:12:40.866Z,1.90
2019-01-04T10:15:14.316Z,2.00
2019-01-04T10:17:43.302Z,2.00
2019-01-04T10:20:11.880Z,2.10
2019-01-04T10:22:40.266Z,2.30
2019-01-04T10:25:08.957Z,2.30
2019-01-04T10:27:37.319Z,2.30
2019-01-04T10:30:07.062Z,2.20
2019-01-04T10:32:36.341Z,2.30
2019-01-04T10:35:10.530Z,2.30
2019-01-04T10:37:35.573Z,2.40
2019-01-04T10:40:10.881Z,2.50
2019-01-04T10:42:34.843Z,2.50
2019-01-04T10:45:04.086Z,2.80
2019-01-04T10:47:32.448Z,3.00
2019-01-04T10:50:00.819Z,3.40
2019-01-04T10:52:29.271Z,3.70
2019-01-04T10:54:58.526Z,3.90
2019-01-04T10:57:26.884Z,4.10
2019-01-04T10:59:55.348Z,4.20
2019-01-04T11:02:24.620Z,4.30
2019-01-04T11:04:53.552Z,4.40
2019-01-04T11:07:21.953Z,4.70
2019-01-04T11:09:50.329Z,4.80
2019-01-04T11:12:18.789Z,4.90
2019-01-04T11:14:47.592Z,5.00
2019-01-04T11:17:15.957Z,5.10
2019-01-04T11:19:44.437Z,5.20
2019-01-04T11:23:02.185Z,5.30
2019-01-04T11:26:09.755Z,5.20
2019-01-04T11:29:18.243Z,5.10
2019-01-04T11:32:35.147Z,4.90
2019-01-04T11:35:37.571Z,4.80
2019-01-04T11:39:30.799Z,4.90
2019-01-04T11:43:24.158Z,5.10
2019-01-04T11:46:38.265Z,5.30
2019-01-04T11:49:49.970Z,5.40
2019-01-04T11:52:36.122Z,5.60
2019-01-04T11:55:04.701Z,5.80
2019-01-04T11:57:33.055Z,6.20
2019-01-04T12:00:01.530Z,6.40
2019-01-04T12:02:30.019Z,6.50
2019-01-04T12:05:00.783Z,6.60
2019-01-04T12:07:30.943Z,6.40
2019-01-04T12:09:59.412Z,6.40
2019-01-04T12:12:27.898Z,6.10
2019-01-04T12:14:56.387Z,5.90
2019-01-04T12:17:24.862Z,5.80
2019-01-04T12:19:53.328Z,5.80
2019-01-04T12:22:23.499Z,5.70
2019-01-04T12:24:51.925Z,5.60
2019-01-04T12:27:20.401Z,5.60
2019-01-04T12:29:50.566Z,5.50
2019-01-04T12:32:18.931Z,5.50
2019-01-04T12:34:47.533Z,5.40
2019-01-04T12:37:16.000Z,5.40
2019-01-04T12:39:45.680Z,5.40
2019-01-04T12:42:14.248Z,5.20
2019-01-04T12:44:42.688Z,5.10
2019-01-04T12:47:11.248Z,5.10
2019-01-04T12:49:39.730Z,5.00
2019-01-04T12:52:08.187Z,4.80
2019-01-04T12:54:38.439Z,4.70
2019-01-04T12:57:08.589Z,4.70
2019-01-04T12:59:36.982Z,4.70
2019-01-04T13:02:05.967Z,4.70
2019-01-04T13:04:34.418Z,4.90
2019-01-04T13:07:02.877Z,4.90
2019-01-04T13:09:33.036Z,4.90
2019-01-04T13:12:01.530Z,4.90
2019-01-04T13:14:29.972Z,4.80
2019-01-04T13:16:58.854Z,4.90
2019-01-04T13:19:27.312Z,4.80
2019-01-04T13:21:55.944Z,4.80
2019-01-04T13:24:24.588Z,4.80
2019-01-04T13:26:53.067Z,4.80
2019-01-04T13:29:21.544Z,4.80
2019-01-04T13:31:50.009Z,4.90
2019-01-04T13:34:18.695Z,4.80
2019-01-04T13:36:47.146Z,4.80
2019-01-04T13:39:15.813Z,4.80
2019-01-04T13:41:44.177Z,4.80
2019-01-04T13:44:12.886Z,4.60
2019-01-04T13:46:41.362Z,4.60
2019-01-04T13:49:09.847Z,4.60
2019-01-04T13:51:38.409Z,4.60
2019-01-04T13:54:06.930Z,4.60
2019-01-04T13:56:35.389Z,4.60
2019-01-04T13:59:04.415Z,4.50
2019-01-04T14:01:36.315Z,4.50
2019-01-04T14:04:05.428Z,4.60
2019-01-04T14:06:33.795Z,4.50
2019-01-04T14:09:03.175Z,4.50
2019-01-04T14:11:31.645Z,4.50
2019-01-04T14:14:00.049Z,4.40
2019-01-04T14:16:28.708Z,4.30
2019-01-04T14:18:57.384Z,4.40
2019-01-04T14:21:26.440Z,4.40
2019-01-04T14:23:54.934Z,4.40
2019-01-04T14:26:23.293Z,4.50
2019-01-04T14:28:51.671Z,4.60
2019-01-04T14:31:20.137Z,4.50
2019-01-04T14:33:48.555Z,4.50
2019-01-04T14:36:16.913Z,4.50
2019-01-04T14:38:45.388Z,4.50
2019-01-04T14:41:13.737Z,4.50
2019-01-04T14:43:44.002Z,4.50
2019-01-04T14:46:12.474Z,4.50
2019-01-04T14:48:41.643Z,4.50
2019-01-04T14:51:10.021Z,4.50
2019-01-04T14:53:38.494Z,4.50
2019-01-04T14:56:06.991Z,4.50
2019-01-04T14:58:35.357Z,4.50
2019-01-04T15:01:05.525Z,4.50
2019-01-04T15:03:35.083Z,4.50
2019-01-04T15:06:03.446Z,4.50
2019-01-04T15:08:32.318Z,4.50
2019-01-04T15:11:00.694Z,4.50
2019-01-04T15:13:29.159Z,4.40
2019-01-04T15:15:57.816Z,4.40
2019-01-04T15:18:26.379Z,4.20
2019-01-04T15:20:54.860Z,4.20
2019-01-04T15:23:24.822Z,4.30
2019-01-04T15:25:53.296Z,4.20
2019-01-04T15:28:21.754Z,4.20
2019-01-04T15:30:50.349Z,4.20
2019-01-04T15:33:20.145Z,3.90
2019-01-04T15:35:48.525Z,3.90
2019-01-04T15:38:16.875Z,3.70
2019-01-04T15:40:45.244Z,3.70
2019-01-04T15:43:13.756Z,3.70
2019-01-04T15:45:42.122Z,3.70
2019-01-04T15:48:10.974Z,3.80
2019-01-04T15:50:39.446Z,3.90
2019-01-04T15:53:07.993Z,3.80
2019-01-04T15:55:36.667Z,3.80
2019-01-04T15:58:05.018Z,3.80
2019-01-04T16:00:33.681Z,3.80
2019-01-04T16:03:02.212Z,3.80
2019-01-04T16:05:30.582Z,3.70
2019-01-04T16:07:59.032Z,3.40
2019-01-04T16:10:27.524Z,3.30
2019-01-04T16:12:55.981Z,3.50
2019-01-04T16:15:24.361Z,3.50
2019-01-04T16:17:52.828Z,3.60
2019-01-04T16:20:21.206Z,3.80
2019-01-04T16:22:49.654Z,3.80
2019-01-04T16:25:20.285Z,3.80
2019-01-04T16:27:50.042Z,3.70
2019-01-04T16:30:19.127Z,3.40
2019-01-04T16:32:47.685Z,3.20
2019-01-04T16:35:16.100Z,3.30
2019-01-04T16:37:44.450Z,3.40
2019-01-04T16:40:12.917Z,3.30
2019-01-04T16:42:41.370Z,3.40
2019-01-04T16:45:10.536Z,3.40
2019-01-04T16:47:39.298Z,3.50
2019-01-04T16:50:08.240Z,3.40
2019-01-04T16:52:36.600Z,3.40
2019-01-04T16:55:06.446Z,3.30
2019-01-04T16:57:34.915Z,3.40
2019-01-04T17:00:03.660Z,3.40
2019-01-04T17:02:33.823Z,3.50
2019-01-04T17:05:02.465Z,3.30
2019-01-04T17:07:30.840Z,3.20
2019-01-04T17:10:02.292Z,3.40
2019-01-04T17:12:30.668Z,3.30
2019-01-04T17:14:59.169Z,3.20
2019-01-04T17:17:27.671Z,3.00
2019-01-04T17:19:56.127Z,2.90
2019-01-04T17:22:24.489Z,3.00
2019-01-04T17:24:53.091Z,3.10
2019-01-04T17:27:21.555Z,3.10
2019-01-04T17:29:49.920Z,3.10
2019-01-04T17:32:18.297Z,3.10
2019-01-04T17:34:47.037Z,3.00
2019-01-04T17:37:15.413Z,3.10
2019-01-04T17:39:45.586Z,3.20
2019-01-04T17:42:14.139Z,3.10
2019-01-04T17:44:42.708Z,3.10
2019-01-04T17:47:11.077Z,3.10
2019-01-04T17:49:41.265Z,3.20
2019-01-04T17:52:09.741Z,3.20
2019-01-04T17:54:38.163Z,3.20
2019-01-04T17:57:08.002Z,3.10
2019-01-04T17:59:38.460Z,3.00
2019-01-04T18:02:06.920Z,3.00
2019-01-04T18:04:35.355Z,3.00
2019-01-04T18:07:03.714Z,3.00
2019-01-04T18:09:32.088Z,3.10
2019-01-04T18:12:00.476Z,3.10
2019-01-04T18:14:28.937Z,3.20
2019-01-04T18:16:57.497Z,3.20
2019-01-04T18:19:26.126Z,3.10
2019-01-04T18:21:54.519Z,3.20
2019-01-04T18:24:24.218Z,3.20
2019-01-04T18:26:52.702Z,3.20
2019-01-04T18:29:21.102Z,3.20
2019-01-04T18:31:49.967Z,3.20
2019-01-04T18:34:18.421Z,3.30
2019-01-04T18:36:47.297Z,3.30
2019-01-04T18:39:15.682Z,3.30
2019-01-04T18:41:44.652Z,3.30
2019-01-04T18:44:13.724Z,3.20
2019-01-04T18:46:43.523Z,3.00
2019-01-04T18:49:13.111Z,2.90
2019-01-04T18:51:41.870Z,3.00
2019-01-04T18:54:10.653Z,2.80
2019-01-04T18:56:39.345Z,2.90
2019-01-04T18:59:12.538Z,2.80
2019-01-04T19:01:42.148Z,2.80
2019-01-04T19:04:11.160Z,2.70
2019-01-04T19:06:41.479Z,2.60
2019-01-04T19:09:10.057Z,2.60
2019-01-04T19:11:39.129Z,2.60
2019-01-04T19:14:07.685Z,2.60
2019-01-04T19:16:37.959Z,2.70
2019-01-04T19:19:06.985Z,2.70
2019-01-04T19:21:36.684Z,2.80
2019-01-04T19:24:05.035Z,2.60
2019-01-04T19:26:33.493Z,2.40
2019-01-04T19:29:01.863Z,2.40
2019-01-04T19:31:32.025Z,2.50
2019-01-04T19:34:00.601Z,2.70
2019-01-04T19:36:30.107Z,2.70
2019-01-04T19:38:58.864Z,2.70
2019-01-04T19:41:29.028Z,2.80
2019-01-04T19:43:57.480Z,2.90
2019-01-04T19:46:28.574Z,2.70
2019-01-04T19:48:57.041Z,2.40
2019-01-04T19:51:25.667Z,2.20
2019-01-04T19:53:54.261Z,2.20
2019-01-04T19:56:22.840Z,2.40
2019-01-04T19:58:51.340Z,2.30
2019-01-04T20:01:19.817Z,2.20
2019-01-04T20:03:48.567Z,2.20
2019-01-04T20:07:34.894Z,2.10
2019-01-04T20:11:28.902Z,2.10
2019-01-04T20:15:25.686Z,2.30
2019-01-04T20:18:18.974Z,2.50
2019-01-04T20:21:05.502Z,2.50
2019-01-04T20:23:55.281Z,2.60
2019-01-04T20:26:51.007Z,2.80
2019-01-04T20:29:54.069Z,2.60
2019-01-04T20:32:44.873Z,2.50
2019-01-04T20:35:32.987Z,2.70
2019-01-04T20:38:21.051Z,2.60
2019-01-04T20:41:18.263Z,2.60
2019-01-04T20:44:04.597Z,2.70
2019-01-04T20:46:52.348Z,2.60
2019-01-04T20:49:44.833Z,2.60
2019-01-04T20:52:38.556Z,2.70
2019-01-04T20:55:25.085Z,2.60
2019-01-04T20:58:16.084Z,2.60
2019-01-04T21:01:04.451Z,2.70
2019-01-04T21:03:55.347Z,2.70
2019-01-04T21:06:35.025Z,2.80
2019-01-04T21:09:42.685Z,2.70
2019-01-04T21:12:33.358Z,2.60
2019-01-04T21:15:21.027Z,2.60
2019-01-04T21:18:09.101Z,2.70
2019-01-04T21:20:55.757Z,2.70
2019-01-04T21:23:49.937Z,2.70
2019-01-04T21:26:37.066Z,2.60
2019-01-04T21:29:25.322Z,2.60
2019-01-04T21:32:16.389Z,2.60
2019-01-04T21:35:02.832Z,2.80
2019-01-04T21:37:57.862Z,2.80
2019-01-04T21:40:59.669Z,2.90
2019-01-04T21:43:46.786Z,2.60
2019-01-04T21:46:53.949Z,2.70
2019-01-04T21:49:33.574Z,2.60
2019-01-04T21:52:23.413Z,2.40
2019-01-04T21:55:25.299Z,2.20
2019-01-04T21:58:15.092Z,2.40
2019-01-04T22:01:03.248Z,2.30
2019-01-04T22:04:00.642Z,2.40
2019-01-04T22:06:50.782Z,2.40
2019-01-04T22:09:41.773Z,2.30
2019-01-04T22:12:32.874Z,2.40
2019-01-04T22:15:33.543Z,2.30
2019-01-04T22:18:21.797Z,2.30
2019-01-04T22:21:13.246Z,2.40
2019-01-04T22:24:13.787Z,2.20
2019-01-04T22:27:00.882Z,2.40
2019-01-04T22:29:47.287Z,2.20
2019-01-04T22:32:33.509Z,2.30
2019-01-04T22:35:19.440Z,2.40
2019-01-04T22:38:20.105Z,2.30
2019-01-04T22:41:06.730Z,2.40
2019-01-04T22:44:06.568Z,2.30
2019-01-04T22:47:09.434Z,2.30
2019-01-04T22:49:59.848Z,2.20
2019-01-04T22:52:59.965Z,2.30
2019-01-04T22:55:47.924Z,2.40
2019-01-04T22:58:53.876Z,2.10
2019-01-04T23:01:40.341Z,2.10
2019-01-04T23:04:46.503Z,2.10
2019-01-04T23:07:32.977Z,2.20
2019-01-04T23:10:19.651Z,2.20
2019-01-04T23:13:19.803Z,2.40
2019-01-04T23:16:07.944Z,2.40
2019-01-04T23:18:56.055Z,2.40
2019-01-04T23:22:06.786Z,2.30
2019-01-04T23:25:00.962Z,2.40
2019-01-04T23:27:54.793Z,2.30
2019-01-04T23:30:54.532Z,2.30
2019-01-04T23:33:41.266Z,2.10
2019-01-04T23:36:41.237Z,2.10
2019-01-04T23:39:41.194Z,2.00
2019-01-04T23:42:28.051Z,1.90
2019-01-04T23:45:16.365Z,2.10
2019-01-04T23:48:02.937Z,2.30
2019-01-04T23:50:50.988Z,2.20
2019-01-04T23:53:39.041Z,2.00
2019-01-04T23:56:27.100Z,1.90
2019-01-04T23:59:22.343Z,2.00
